Погода Слипкина 2 недели

Минская область, Белоруссия

26 мая-08 июня
  • 26мая
    Сегодня
    +13°
    +27°
    Практически безоблачно
    ВремяПогодаТемператураВлажностьДавлениеВетер, м/сВероятность осадков
    00:00Практически безоблачно+16°C74 %755 мм2.3 м/с2 %
    03:00Ясно и безоблачно+13°C77 %756 мм2.3 м/с2 %
    06:00Ясно и безоблачно+13°C72 %756 мм1.6 м/с2 %
    09:00Ясно и безоблачно+20°C61 %756 мм1.3 м/с2 %
    12:00Ясно и безоблачно+24°C41 %756 мм2.0 м/с2 %
    15:00Практически безоблачно+26°C36 %756 мм2.0 м/с2 %
    18:00Ясно и безоблачно+26°C37 %755 мм2.2 м/с2 %
    21:00Ясно и безоблачно+21°C64 %755 мм2.0 м/с2 %
  • 27мая
    Понедельник
    +12°
    +26°
    Облачно с прояснениями
    ВремяПогодаТемператураВлажностьДавлениеВетер, м/сВероятность осадков
    00:00Ясно и безоблачно+15°C73 %756 мм2.2 м/с2 %
    03:00Ясно и безоблачно+15°C68 %756 мм2.1 м/с2 %
    06:00Ясно и безоблачно+14°C67 %756 мм0.2 м/с2 %
    09:00Небольшая облачность+21°C54 %756 мм0.7 м/с2 %
    12:00Практически безоблачно+25°C39 %756 мм2.1 м/с2 %
    15:00Облачно с прояснениями+26°C38 %755 мм2.1 м/с2 %
    18:00Ясно и безоблачно+26°C39 %754 мм2.0 м/с3 %
    21:00Ясно и безоблачно+21°C63 %753 мм2.0 м/с3 %
  • 28мая
    Вторник
    +13°
    +26°
    Пасмурно, дожди с грозами
    ВремяПогодаТемператураВлажностьДавлениеВетер, м/сВероятность осадков
    00:00Ясно и безоблачно+17°C72 %753 мм2.3 м/с2 %
    03:00Ясно и безоблачно+14°C84 %753 мм2.0 м/с2 %
    06:00Ясно и безоблачно+14°C85 %753 мм1.6 м/с2 %
    09:00Ясно и безоблачно+22°C65 %753 мм1.9 м/с1 %
    12:00Практически безоблачно+26°C43 %753 мм3.4 м/с4 %
    15:00Пасмурно, дожди с грозами+26°C41 %751 мм4.3 м/с28 %
    18:00Практически безоблачно+25°C50 %751 мм2.7 м/с39 %
    21:00Небольшая облачность+21°C74 %750 мм3.2 м/с8 %
  • 29мая
    Среда
    +14°
    +27°
    Практически безоблачно
    ВремяПогодаТемператураВлажностьДавлениеВетер, м/сВероятность осадков
    00:00Практически безоблачно+17°C85 %750 мм2.6 м/с2 %
    03:00Ясно и безоблачно+15°C86 %750 мм2.4 м/с2 %
    06:00Ясно и безоблачно+15°C84 %749 мм2.5 м/с2 %
    09:00Небольшая облачность+21°C66 %749 мм1.7 м/с2 %
    12:00Ясно и безоблачно+26°C36 %749 мм3.1 м/с3 %
    15:00Практически безоблачно+27°C28 %748 мм3.7 м/с21 %
    18:00Небольшая облачность+26°C29 %747 мм4.0 м/с16 %
    21:00Ясно и безоблачно+22°C52 %747 мм2.1 м/с5 %
  • 30мая
    Четверг
    +14°
    +27°
    Облачно с прояснениями
    ВремяПогодаТемператураВлажностьДавлениеВетер, м/сВероятность осадков
    00:00Ясно и безоблачно+17°C66 %746 мм2.1 м/с2 %
    03:00Практически безоблачно+15°C71 %746 мм2.2 м/с2 %
    06:00Облачно с прояснениями+15°C70 %745 мм2.2 м/с2 %
    09:00Облачно с прояснениями+21°C58 %746 мм2.1 м/с2 %
    12:00Облачно с прояснениями+26°C36 %745 мм4.0 м/с10 %
    15:00Облачно с прояснениями+26°C33 %745 мм4.6 м/с33 %
    18:00Небольшая облачность+26°C32 %744 мм4.7 м/с42 %
    21:00Ясно и безоблачно+22°C51 %744 мм2.3 м/с14 %
Мы используем cookies
Соглашаюсь